sensor_id;sensor_type;location;lat;lon;timestamp;P1;durP1;ratioP1;P2;durP2;ratioP2
67274;SDS011;55463;52.324;5.122;2024-03-22T00:00:07;53.95;;;27.48;;
67274;SDS011;55463;52.324;5.122;2024-03-22T00:02:36;66.35;;;27.48;;
67274;SDS011;55463;52.324;5.122;2024-03-22T00:05:02;62.17;;;30.05;;
67274;SDS011;55463;52.324;5.122;2024-03-22T00:07:28;60.92;;;29.05;;
67274;SDS011;55463;52.324;5.122;2024-03-22T00:09:54;57.35;;;27.85;;
67274;SDS011;55463;52.324;5.122;2024-03-22T00:12:19;61.50;;;29.25;;
67274;SDS011;55463;52.324;5.122;2024-03-22T00:14:45;62.85;;;29.45;;
67274;SDS011;55463;52.324;5.122;2024-03-22T00:17:10;65.43;;;29.73;;
67274;SDS011;55463;52.324;5.122;2024-03-22T00:19:35;71.57;;;29.33;;
67274;SDS011;55463;52.324;5.122;2024-03-22T00:22:01;69.85;;;28.92;;
67274;SDS011;55463;52.324;5.122;2024-03-22T00:33:35;64.75;;;29.63;;
67274;SDS011;55463;52.324;5.122;2024-03-22T00:38:26;64.97;;;31.05;;
67274;SDS011;55463;52.324;5.122;2024-03-22T00:40:52;65.88;;;30.50;;
67274;SDS011;55463;52.324;5.122;2024-03-22T00:43:17;69.90;;;31.30;;
67274;SDS011;55463;52.324;5.122;2024-03-22T00:45:44;69.70;;;31.10;;
67274;SDS011;55463;52.324;5.122;2024-03-22T00:48:10;68.65;;;30.75;;
67274;SDS011;55463;52.324;5.122;2024-03-22T00:50:35;65.07;;;30.88;;
67274;SDS011;55463;52.324;5.122;2024-03-22T00:53:00;70.72;;;30.70;;
67274;SDS011;55463;52.324;5.122;2024-03-22T00:55:28;60.50;;;29.90;;
67274;SDS011;55463;52.324;5.122;2024-03-22T00:57:53;66.00;;;30.45;;
67274;SDS011;55463;52.324;5.122;2024-03-22T01:00:19;68.13;;;29.42;;
67274;SDS011;55463;52.324;5.122;2024-03-22T01:02:45;61.35;;;28.98;;
67274;SDS011;55463;52.324;5.122;2024-03-22T01:05:10;65.88;;;30.80;;
67274;SDS011;55463;52.324;5.122;2024-03-22T01:07:36;62.83;;;29.13;;
67274;SDS011;55463;52.324;5.122;2024-03-22T01:10:02;62.83;;;29.48;;
67274;SDS011;55463;52.324;5.122;2024-03-22T01:12:28;67.35;;;29.65;;
67274;SDS011;55463;52.324;5.122;2024-03-22T01:14:54;62.72;;;29.15;;
67274;SDS011;55463;52.324;5.122;2024-03-22T01:17:20;72.93;;;28.88;;
67274;SDS011;55463;52.324;5.122;2024-03-22T01:19:45;67.03;;;27.98;;
67274;SDS011;55463;52.324;5.122;2024-03-22T01:22:11;67.00;;;28.83;;
67274;SDS011;55463;52.324;5.122;2024-03-22T01:24:36;63.70;;;27.95;;
67274;SDS011;55463;52.324;5.122;2024-03-22T01:27:01;66.75;;;28.67;;
67274;SDS011;55463;52.324;5.122;2024-03-22T01:29:27;73.43;;;29.15;;
67274;SDS011;55463;52.324;5.122;2024-03-22T01:31:55;62.15;;;28.75;;
67274;SDS011;55463;52.324;5.122;2024-03-22T01:34:21;72.65;;;30.23;;
67274;SDS011;55463;52.324;5.122;2024-03-22T01:36:46;67.03;;;27.30;;
67274;SDS011;55463;52.324;5.122;2024-03-22T01:39:12;62.30;;;28.55;;
67274;SDS011;55463;52.324;5.122;2024-03-22T01:41:39;66.47;;;28.15;;
67274;SDS011;55463;52.324;5.122;2024-03-22T01:44:04;72.43;;;28.75;;
67274;SDS011;55463;52.324;5.122;2024-03-22T01:46:30;68.35;;;29.85;;
67274;SDS011;55463;52.324;5.122;2024-03-22T01:48:55;68.03;;;28.63;;
67274;SDS011;55463;52.324;5.122;2024-03-22T01:51:21;68.07;;;27.08;;
67274;SDS011;55463;52.324;5.122;2024-03-22T01:53:46;68.55;;;28.48;;
67274;SDS011;55463;52.324;5.122;2024-03-22T01:56:12;66.95;;;27.77;;
67274;SDS011;55463;52.324;5.122;2024-03-22T01:58:38;63.35;;;27.92;;
67274;SDS011;55463;52.324;5.122;2024-03-22T02:01:04;67.82;;;27.73;;
67274;SDS011;55463;52.324;5.122;2024-03-22T02:03:29;59.75;;;25.88;;
67274;SDS011;55463;52.324;5.122;2024-03-22T02:05:55;64.53;;;25.63;;
67274;SDS011;55463;52.324;5.122;2024-03-22T02:08:21;62.75;;;27.65;;
67274;SDS011;55463;52.324;5.122;2024-03-22T02:10:46;63.75;;;26.77;;
67274;SDS011;55463;52.324;5.122;2024-03-22T02:13:12;68.70;;;27.42;;
67274;SDS011;55463;52.324;5.122;2024-03-22T02:15:37;64.22;;;26.33;;
67274;SDS011;55463;52.324;5.122;2024-03-22T02:18:03;64.38;;;25.75;;
67274;SDS011;55463;52.324;5.122;2024-03-22T02:20:28;65.53;;;26.15;;
67274;SDS011;55463;52.324;5.122;2024-03-22T02:22:54;67.25;;;26.88;;
67274;SDS011;55463;52.324;5.122;2024-03-22T02:25:19;62.10;;;25.67;;
67274;SDS011;55463;52.324;5.122;2024-03-22T02:27:45;66.25;;;25.55;;
67274;SDS011;55463;52.324;5.122;2024-03-22T02:30:10;75.85;;;26.63;;
67274;SDS011;55463;52.324;5.122;2024-03-22T02:32:36;72.38;;;26.98;;
67274;SDS011;55463;52.324;5.122;2024-03-22T02:35:02;77.28;;;28.10;;
67274;SDS011;55463;52.324;5.122;2024-03-22T02:37:28;68.03;;;26.10;;
67274;SDS011;55463;52.324;5.122;2024-03-22T02:39:53;75.60;;;27.38;;
67274;SDS011;55463;52.324;5.122;2024-03-22T02:42:18;68.28;;;26.65;;
67274;SDS011;55463;52.324;5.122;2024-03-22T02:44:44;67.03;;;27.95;;
67274;SDS011;55463;52.324;5.122;2024-03-22T02:47:09;64.72;;;25.80;;
67274;SDS011;55463;52.324;5.122;2024-03-22T02:49:35;64.53;;;26.48;;
67274;SDS011;55463;52.324;5.122;2024-03-22T02:52:01;56.08;;;25.33;;
67274;SDS011;55463;52.324;5.122;2024-03-22T02:54:26;61.60;;;25.40;;
67274;SDS011;55463;52.324;5.122;2024-03-22T02:56:52;58.03;;;24.52;;
67274;SDS011;55463;52.324;5.122;2024-03-22T02:59:17;62.38;;;25.95;;
67274;SDS011;55463;52.324;5.122;2024-03-22T03:01:43;66.53;;;26.98;;
67274;SDS011;55463;52.324;5.122;2024-03-22T03:04:08;71.25;;;27.75;;
67274;SDS011;55463;52.324;5.122;2024-03-22T03:06:33;65.07;;;27.75;;
67274;SDS011;55463;52.324;5.122;2024-03-22T03:08:59;63.53;;;26.10;;
67274;SDS011;55463;52.324;5.122;2024-03-22T03:11:24;65.97;;;27.70;;
67274;SDS011;55463;52.324;5.122;2024-03-22T03:13:50;64.68;;;26.92;;
67274;SDS011;55463;52.324;5.122;2024-03-22T03:16:15;65.97;;;27.50;;
67274;SDS011;55463;52.324;5.122;2024-03-22T03:18:40;62.17;;;28.17;;
67274;SDS011;55463;52.324;5.122;2024-03-22T03:21:06;59.22;;;26.35;;
67274;SDS011;55463;52.324;5.122;2024-03-22T03:23:31;60.65;;;27.15;;
67274;SDS011;55463;52.324;5.122;2024-03-22T03:25:57;58.40;;;26.42;;
67274;SDS011;55463;52.324;5.122;2024-03-22T03:28:22;49.58;;;25.63;;
67274;SDS011;55463;52.324;5.122;2024-03-22T03:30:48;46.03;;;24.63;;
67274;SDS011;55463;52.324;5.122;2024-03-22T03:33:13;58.45;;;24.02;;
67274;SDS011;55463;52.324;5.122;2024-03-22T03:35:38;48.50;;;24.05;;
67274;SDS011;55463;52.324;5.122;2024-03-22T03:38:04;53.90;;;23.55;;
67274;SDS011;55463;52.324;5.122;2024-03-22T03:40:29;46.50;;;24.33;;
67274;SDS011;55463;52.324;5.122;2024-03-22T03:42:54;49.80;;;24.33;;
67274;SDS011;55463;52.324;5.122;2024-03-22T03:45:20;46.30;;;24.08;;
67274;SDS011;55463;52.324;5.122;2024-03-22T03:47:45;49.78;;;22.55;;
67274;SDS011;55463;52.324;5.122;2024-03-22T03:50:11;47.83;;;23.10;;
67274;SDS011;55463;52.324;5.122;2024-03-22T03:52:37;47.83;;;23.60;;
67274;SDS011;55463;52.324;5.122;2024-03-22T03:55:02;53.03;;;23.25;;
67274;SDS011;55463;52.324;5.122;2024-03-22T03:57:28;47.05;;;22.38;;
67274;SDS011;55463;52.324;5.122;2024-03-22T03:59:54;50.00;;;22.85;;
67274;SDS011;55463;52.324;5.122;2024-03-22T04:02:19;47.65;;;21.70;;
67274;SDS011;55463;52.324;5.122;2024-03-22T04:04:44;45.83;;;22.48;;
67274;SDS011;55463;52.324;5.122;2024-03-22T04:07:10;47.67;;;22.50;;
67274;SDS011;55463;52.324;5.122;2024-03-22T04:09:35;45.75;;;22.65;;
67274;SDS011;55463;52.324;5.122;2024-03-22T04:12:01;53.05;;;22.52;;
67274;SDS011;55463;52.324;5.122;2024-03-22T04:14:26;52.40;;;20.85;;
67274;SDS011;55463;52.324;5.122;2024-03-22T04:16:51;47.67;;;20.52;;
67274;SDS011;55463;52.324;5.122;2024-03-22T04:19:19;44.25;;;20.27;;
67274;SDS011;55463;52.324;5.122;2024-03-22T04:21:45;42.90;;;20.20;;
67274;SDS011;55463;52.324;5.122;2024-03-22T04:24:11;41.15;;;19.13;;
67274;SDS011;55463;52.324;5.122;2024-03-22T04:26:36;42.33;;;19.42;;
67274;SDS011;55463;52.324;5.122;2024-03-22T04:29:01;41.38;;;19.50;;
67274;SDS011;55463;52.324;5.122;2024-03-22T04:31:27;46.55;;;21.23;;
67274;SDS011;55463;52.324;5.122;2024-03-22T04:33:52;46.25;;;20.50;;
67274;SDS011;55463;52.324;5.122;2024-03-22T04:36:18;46.15;;;20.73;;
67274;SDS011;55463;52.324;5.122;2024-03-22T04:38:43;54.50;;;21.67;;
67274;SDS011;55463;52.324;5.122;2024-03-22T04:41:08;48.22;;;20.50;;
67274;SDS011;55463;52.324;5.122;2024-03-22T04:43:34;45.42;;;20.38;;
67274;SDS011;55463;52.324;5.122;2024-03-22T04:45:59;40.45;;;19.80;;
67274;SDS011;55463;52.324;5.122;2024-03-22T04:48:25;48.92;;;19.23;;
67274;SDS011;55463;52.324;5.122;2024-03-22T04:50:51;43.17;;;18.98;;
67274;SDS011;55463;52.324;5.122;2024-03-22T04:53:17;44.67;;;20.20;;
67274;SDS011;55463;52.324;5.122;2024-03-22T04:55:43;43.33;;;19.30;;
67274;SDS011;55463;52.324;5.122;2024-03-22T04:58:28;46.42;;;19.83;;
67274;SDS011;55463;52.324;5.122;2024-03-22T05:00:57;44.00;;;19.23;;
67274;SDS011;55463;52.324;5.122;2024-03-22T05:03:22;45.55;;;18.52;;
67274;SDS011;55463;52.324;5.122;2024-03-22T05:05:49;44.55;;;18.00;;
67274;SDS011;55463;52.324;5.122;2024-03-22T05:08:15;41.80;;;16.80;;
67274;SDS011;55463;52.324;5.122;2024-03-22T05:10:40;34.58;;;16.92;;
67274;SDS011;55463;52.324;5.122;2024-03-22T05:13:07;40.42;;;17.17;;
67274;SDS011;55463;52.324;5.122;2024-03-22T05:15:32;37.85;;;15.68;;
67274;SDS011;55463;52.324;5.122;2024-03-22T05:17:58;43.13;;;17.63;;
67274;SDS011;55463;52.324;5.122;2024-03-22T05:20:24;39.95;;;16.23;;
67274;SDS011;55463;52.324;5.122;2024-03-22T05:22:49;38.80;;;16.75;;
67274;SDS011;55463;52.324;5.122;2024-03-22T05:25:15;42.60;;;16.63;;
67274;SDS011;55463;52.324;5.122;2024-03-22T05:27:41;40.50;;;15.27;;
67274;SDS011;55463;52.324;5.122;2024-03-22T05:30:07;35.67;;;14.80;;
67274;SDS011;55463;52.324;5.122;2024-03-22T05:32:34;45.25;;;15.10;;
67274;SDS011;55463;52.324;5.122;2024-03-22T05:34:59;39.05;;;13.82;;
67274;SDS011;55463;52.324;5.122;2024-03-22T05:37:24;33.38;;;14.07;;
67274;SDS011;55463;52.324;5.122;2024-03-22T05:39:50;38.53;;;13.73;;
67274;SDS011;55463;52.324;5.122;2024-03-22T05:42:15;35.17;;;13.82;;
67274;SDS011;55463;52.324;5.122;2024-03-22T05:44:40;38.38;;;13.68;;
67274;SDS011;55463;52.324;5.122;2024-03-22T05:47:06;37.17;;;12.85;;
67274;SDS011;55463;52.324;5.122;2024-03-22T05:49:31;37.85;;;12.73;;
67274;SDS011;55463;52.324;5.122;2024-03-22T05:51:57;28.88;;;13.07;;
67274;SDS011;55463;52.324;5.122;2024-03-22T05:54:23;31.83;;;11.98;;
67274;SDS011;55463;52.324;5.122;2024-03-22T05:56:48;40.40;;;13.40;;
67274;SDS011;55463;52.324;5.122;2024-03-22T05:59:14;31.05;;;11.98;;
67274;SDS011;55463;52.324;5.122;2024-03-22T06:01:39;30.30;;;11.88;;
67274;SDS011;55463;52.324;5.122;2024-03-22T06:04:05;38.80;;;12.40;;
67274;SDS011;55463;52.324;5.122;2024-03-22T06:06:31;32.90;;;12.20;;
67274;SDS011;55463;52.324;5.122;2024-03-22T06:08:57;29.67;;;11.98;;
67274;SDS011;55463;52.324;5.122;2024-03-22T06:11:25;32.45;;;11.98;;
67274;SDS011;55463;52.324;5.122;2024-03-22T06:13:51;38.30;;;12.18;;
67274;SDS011;55463;52.324;5.122;2024-03-22T06:16:16;35.58;;;12.65;;
67274;SDS011;55463;52.324;5.122;2024-03-22T06:18:41;39.72;;;12.02;;
67274;SDS011;55463;52.324;5.122;2024-03-22T06:21:07;33.88;;;12.45;;
67274;SDS011;55463;52.324;5.122;2024-03-22T06:23:32;31.40;;;11.15;;
67274;SDS011;55463;52.324;5.122;2024-03-22T06:25:58;29.20;;;11.07;;
67274;SDS011;55463;52.324;5.122;2024-03-22T06:28:25;33.38;;;11.98;;
67274;SDS011;55463;52.324;5.122;2024-03-22T06:30:52;32.83;;;12.60;;
67274;SDS011;55463;52.324;5.122;2024-03-22T06:33:19;28.08;;;11.75;;
67274;SDS011;55463;52.324;5.122;2024-03-22T06:35:44;31.48;;;11.75;;
67274;SDS011;55463;52.324;5.122;2024-03-22T06:38:09;34.75;;;11.20;;
67274;SDS011;55463;52.324;5.122;2024-03-22T06:40:35;30.13;;;11.68;;
67274;SDS011;55463;52.324;5.122;2024-03-22T06:43:01;33.47;;;11.52;;
67274;SDS011;55463;52.324;5.122;2024-03-22T06:45:26;33.38;;;11.93;;
67274;SDS011;55463;52.324;5.122;2024-03-22T06:47:52;35.63;;;12.07;;
67274;SDS011;55463;52.324;5.122;2024-03-22T06:50:17;36.85;;;11.23;;
67274;SDS011;55463;52.324;5.122;2024-03-22T06:52:43;29.50;;;10.88;;
67274;SDS011;55463;52.324;5.122;2024-03-22T06:55:09;31.90;;;10.70;;
67274;SDS011;55463;52.324;5.122;2024-03-22T06:57:34;29.05;;;10.23;;
67274;SDS011;55463;52.324;5.122;2024-03-22T07:00:00;31.65;;;10.57;;
67274;SDS011;55463;52.324;5.122;2024-03-22T07:02:25;32.08;;;11.10;;
67274;SDS011;55463;52.324;5.122;2024-03-22T07:04:51;27.23;;;9.23;;
67274;SDS011;55463;52.324;5.122;2024-03-22T07:07:17;25.40;;;9.52;;
67274;SDS011;55463;52.324;5.122;2024-03-22T07:09:43;30.90;;;10.75;;
67274;SDS011;55463;52.324;5.122;2024-03-22T07:12:08;26.30;;;9.75;;
67274;SDS011;55463;52.324;5.122;2024-03-22T07:14:34;33.15;;;10.25;;
67274;SDS011;55463;52.324;5.122;2024-03-22T07:16:59;23.50;;;9.13;;
67274;SDS011;55463;52.324;5.122;2024-03-22T07:19:24;18.75;;;8.18;;
67274;SDS011;55463;52.324;5.122;2024-03-22T07:21:50;26.95;;;9.70;;
67274;SDS011;55463;52.324;5.122;2024-03-22T07:24:15;27.63;;;8.27;;
67274;SDS011;55463;52.324;5.122;2024-03-22T07:26:42;25.80;;;8.25;;
67274;SDS011;55463;52.324;5.122;2024-03-22T07:29:08;27.17;;;8.23;;
67274;SDS011;55463;52.324;5.122;2024-03-22T07:31:33;26.75;;;8.60;;
67274;SDS011;55463;52.324;5.122;2024-03-22T07:33:59;19.20;;;7.45;;
67274;SDS011;55463;52.324;5.122;2024-03-22T07:36:24;21.88;;;8.27;;
67274;SDS011;55463;52.324;5.122;2024-03-22T07:38:51;20.42;;;7.43;;
67274;SDS011;55463;52.324;5.122;2024-03-22T07:41:17;19.13;;;8.32;;
67274;SDS011;55463;52.324;5.122;2024-03-22T07:43:42;23.10;;;9.05;;
67274;SDS011;55463;52.324;5.122;2024-03-22T07:46:07;21.50;;;8.13;;
67274;SDS011;55463;52.324;5.122;2024-03-22T07:48:34;26.48;;;8.15;;
67274;SDS011;55463;52.324;5.122;2024-03-22T07:51:00;26.95;;;8.73;;
67274;SDS011;55463;52.324;5.122;2024-03-22T07:53:26;23.45;;;8.30;;
67274;SDS011;55463;52.324;5.122;2024-03-22T07:55:52;21.98;;;8.55;;
67274;SDS011;55463;52.324;5.122;2024-03-22T07:58:17;21.70;;;8.45;;
67274;SDS011;55463;52.324;5.122;2024-03-22T08:00:42;20.08;;;8.32;;
67274;SDS011;55463;52.324;5.122;2024-03-22T08:03:08;21.83;;;8.75;;
67274;SDS011;55463;52.324;5.122;2024-03-22T08:05:39;30.45;;;9.52;;
67274;SDS011;55463;52.324;5.122;2024-03-22T08:08:05;22.80;;;9.15;;
67274;SDS011;55463;52.324;5.122;2024-03-22T08:10:30;22.23;;;9.10;;
67274;SDS011;55463;52.324;5.122;2024-03-22T08:12:56;27.05;;;8.77;;
67274;SDS011;55463;52.324;5.122;2024-03-22T08:15:21;25.33;;;8.85;;
67274;SDS011;55463;52.324;5.122;2024-03-22T08:17:46;23.23;;;8.27;;
67274;SDS011;55463;52.324;5.122;2024-03-22T08:20:12;31.50;;;8.75;;
67274;SDS011;55463;52.324;5.122;2024-03-22T08:22:37;20.63;;;8.38;;
67274;SDS011;55463;52.324;5.122;2024-03-22T08:25:03;27.92;;;9.60;;
67274;SDS011;55463;52.324;5.122;2024-03-22T08:27:29;20.10;;;8.85;;
67274;SDS011;55463;52.324;5.122;2024-03-22T08:29:54;24.30;;;9.43;;
67274;SDS011;55463;52.324;5.122;2024-03-22T08:32:20;22.23;;;9.77;;
67274;SDS011;55463;52.324;5.122;2024-03-22T08:34:45;26.27;;;9.90;;
67274;SDS011;55463;52.324;5.122;2024-03-22T08:37:11;25.10;;;9.30;;
67274;SDS011;55463;52.324;5.122;2024-03-22T08:39:36;25.67;;;10.38;;
67274;SDS011;55463;52.324;5.122;2024-03-22T08:42:02;29.52;;;10.05;;
67274;SDS011;55463;52.324;5.122;2024-03-22T08:44:30;32.58;;;10.23;;
67274;SDS011;55463;52.324;5.122;2024-03-22T08:46:55;31.02;;;11.32;;
67274;SDS011;55463;52.324;5.122;2024-03-22T08:49:21;29.80;;;10.60;;
67274;SDS011;55463;52.324;5.122;2024-03-22T08:51:46;31.08;;;10.35;;
67274;SDS011;55463;52.324;5.122;2024-03-22T08:54:13;27.88;;;10.32;;
67274;SDS011;55463;52.324;5.122;2024-03-22T08:56:38;32.95;;;11.88;;
67274;SDS011;55463;52.324;5.122;2024-03-22T08:59:04;27.00;;;10.35;;
67274;SDS011;55463;52.324;5.122;2024-03-22T09:01:29;27.50;;;11.00;;
67274;SDS011;55463;52.324;5.122;2024-03-22T09:03:54;27.40;;;10.60;;
67274;SDS011;55463;52.324;5.122;2024-03-22T09:06:20;30.35;;;10.68;;
67274;SDS011;55463;52.324;5.122;2024-03-22T09:08:46;30.33;;;12.30;;
67274;SDS011;55463;52.324;5.122;2024-03-22T09:11:11;28.65;;;10.65;;
67274;SDS011;55463;52.324;5.122;2024-03-22T09:13:37;31.13;;;10.80;;
67274;SDS011;55463;52.324;5.122;2024-03-22T09:16:03;26.25;;;11.38;;
67274;SDS011;55463;52.324;5.122;2024-03-22T09:18:29;25.83;;;10.95;;
67274;SDS011;55463;52.324;5.122;2024-03-22T09:20:54;27.08;;;10.77;;
67274;SDS011;55463;52.324;5.122;2024-03-22T09:23:21;35.15;;;10.77;;
67274;SDS011;55463;52.324;5.122;2024-03-22T09:25:46;34.28;;;10.93;;
67274;SDS011;55463;52.324;5.122;2024-03-22T09:28:12;23.80;;;10.75;;
67274;SDS011;55463;52.324;5.122;2024-03-22T09:30:38;31.40;;;11.38;;
67274;SDS011;55463;52.324;5.122;2024-03-22T09:33:05;30.70;;;11.13;;
67274;SDS011;55463;52.324;5.122;2024-03-22T09:35:32;36.40;;;10.95;;
67274;SDS011;55463;52.324;5.122;2024-03-22T09:37:58;25.02;;;10.90;;
67274;SDS011;55463;52.324;5.122;2024-03-22T09:40:24;29.05;;;11.05;;
67274;SDS011;55463;52.324;5.122;2024-03-22T09:42:49;26.00;;;10.60;;
67274;SDS011;55463;52.324;5.122;2024-03-22T09:45:18;26.10;;;11.63;;
67274;SDS011;55463;52.324;5.122;2024-03-22T09:47:45;31.55;;;10.73;;
67274;SDS011;55463;52.324;5.122;2024-03-22T09:50:12;22.92;;;10.23;;
67274;SDS011;55463;52.324;5.122;2024-03-22T09:52:39;27.45;;;10.25;;
67274;SDS011;55463;52.324;5.122;2024-03-22T09:55:07;29.45;;;10.57;;
67274;SDS011;55463;52.324;5.122;2024-03-22T09:57:42;23.60;;;10.10;;
67274;SDS011;55463;52.324;5.122;2024-03-22T10:00:09;22.42;;;10.52;;
67274;SDS011;55463;52.324;5.122;2024-03-22T10:02:39;28.95;;;10.63;;
67274;SDS011;55463;52.324;5.122;2024-03-22T10:05:05;24.33;;;9.80;;
67274;SDS011;55463;52.324;5.122;2024-03-22T10:07:31;24.70;;;9.55;;
67274;SDS011;55463;52.324;5.122;2024-03-22T10:09:57;22.13;;;9.73;;
67274;SDS011;55463;52.324;5.122;2024-03-22T10:12:24;22.75;;;9.68;;
67274;SDS011;55463;52.324;5.122;2024-03-22T10:14:52;21.67;;;10.23;;
67274;SDS011;55463;52.324;5.122;2024-03-22T10:17:17;22.92;;;9.55;;
67274;SDS011;55463;52.324;5.122;2024-03-22T10:19:43;25.05;;;9.23;;
67274;SDS011;55463;52.324;5.122;2024-03-22T10:22:08;26.63;;;10.13;;
67274;SDS011;55463;52.324;5.122;2024-03-22T10:24:34;19.60;;;9.68;;
67274;SDS011;55463;52.324;5.122;2024-03-22T10:26:59;27.23;;;9.35;;
67274;SDS011;55463;52.324;5.122;2024-03-22T10:29:25;27.42;;;9.40;;
67274;SDS011;55463;52.324;5.122;2024-03-22T10:31:54;21.23;;;8.27;;
67274;SDS011;55463;52.324;5.122;2024-03-22T10:34:21;17.30;;;8.48;;
67274;SDS011;55463;52.324;5.122;2024-03-22T10:36:49;17.33;;;8.18;;
67274;SDS011;55463;52.324;5.122;2024-03-22T10:39:16;16.05;;;8.63;;
67274;SDS011;55463;52.324;5.122;2024-03-22T10:41:44;15.55;;;8.15;;
67274;SDS011;55463;52.324;5.122;2024-03-22T10:44:10;14.35;;;7.70;;
67274;SDS011;55463;52.324;5.122;2024-03-22T10:46:37;16.67;;;7.43;;
67274;SDS011;55463;52.324;5.122;2024-03-22T10:49:05;16.40;;;8.52;;
67274;SDS011;55463;52.324;5.122;2024-03-22T10:51:31;13.20;;;7.40;;
67274;SDS011;55463;52.324;5.122;2024-03-22T10:53:59;14.27;;;7.75;;
67274;SDS011;55463;52.324;5.122;2024-03-22T10:56:28;12.63;;;6.97;;
67274;SDS011;55463;52.324;5.122;2024-03-22T10:58:54;17.92;;;8.60;;
67274;SDS011;55463;52.324;5.122;2024-03-22T11:01:24;16.20;;;8.73;;
67274;SDS011;55463;52.324;5.122;2024-03-22T11:04:05;14.70;;;7.85;;
67274;SDS011;55463;52.324;5.122;2024-03-22T11:06:38;18.45;;;8.18;;
67274;SDS011;55463;52.324;5.122;2024-03-22T11:09:04;15.32;;;7.78;;
67274;SDS011;55463;52.324;5.122;2024-03-22T11:11:30;11.88;;;7.55;;
67274;SDS011;55463;52.324;5.122;2024-03-22T11:13:56;14.82;;;8.65;;
67274;SDS011;55463;52.324;5.122;2024-03-22T11:16:22;16.63;;;8.23;;
67274;SDS011;55463;52.324;5.122;2024-03-22T11:18:47;15.93;;;8.23;;
67274;SDS011;55463;52.324;5.122;2024-03-22T11:21:14;13.70;;;8.13;;
67274;SDS011;55463;52.324;5.122;2024-03-22T11:23:40;19.30;;;7.88;;
67274;SDS011;55463;52.324;5.122;2024-03-22T11:26:05;17.30;;;8.45;;
67274;SDS011;55463;52.324;5.122;2024-03-22T11:28:32;12.35;;;8.10;;
67274;SDS011;55463;52.324;5.122;2024-03-22T11:30:58;17.40;;;9.13;;
67274;SDS011;55463;52.324;5.122;2024-03-22T11:33:24;18.45;;;8.65;;
67274;SDS011;55463;52.324;5.122;2024-03-22T11:35:52;20.25;;;10.25;;
67274;SDS011;55463;52.324;5.122;2024-03-22T11:38:17;13.95;;;9.50;;
67274;SDS011;55463;52.324;5.122;2024-03-22T11:40:43;16.17;;;10.05;;
67274;SDS011;55463;52.324;5.122;2024-03-22T11:43:10;16.52;;;9.93;;
67274;SDS011;55463;52.324;5.122;2024-03-22T11:45:36;18.58;;;10.50;;
67274;SDS011;55463;52.324;5.122;2024-03-22T11:48:02;20.92;;;10.68;;
67274;SDS011;55463;52.324;5.122;2024-03-22T11:50:28;25.27;;;12.48;;
67274;SDS011;55463;52.324;5.122;2024-03-22T11:52:54;21.45;;;11.25;;
67274;SDS011;55463;52.324;5.122;2024-03-22T11:55:19;24.77;;;12.73;;
67274;SDS011;55463;52.324;5.122;2024-03-22T11:57:51;25.17;;;12.23;;
67274;SDS011;55463;52.324;5.122;2024-03-22T12:00:18;19.58;;;11.20;;
67274;SDS011;55463;52.324;5.122;2024-03-22T12:02:44;22.10;;;11.85;;
67274;SDS011;55463;52.324;5.122;2024-03-22T12:05:10;24.15;;;12.20;;
67274;SDS011;55463;52.324;5.122;2024-03-22T12:07:36;19.88;;;11.93;;
67274;SDS011;55463;52.324;5.122;2024-03-22T12:10:02;26.65;;;12.50;;
67274;SDS011;55463;52.324;5.122;2024-03-22T12:12:28;25.63;;;11.90;;
67274;SDS011;55463;52.324;5.122;2024-03-22T12:14:54;26.85;;;12.23;;
67274;SDS011;55463;52.324;5.122;2024-03-22T12:17:20;22.33;;;11.70;;
67274;SDS011;55463;52.324;5.122;2024-03-22T12:19:45;27.05;;;11.30;;
67274;SDS011;55463;52.324;5.122;2024-03-22T12:22:10;23.13;;;10.75;;
67274;SDS011;55463;52.324;5.122;2024-03-22T12:24:36;28.08;;;9.98;;
67274;SDS011;55463;52.324;5.122;2024-03-22T12:27:01;23.05;;;9.75;;
67274;SDS011;55463;52.324;5.122;2024-03-22T12:29:27;25.65;;;9.98;;
67274;SDS011;55463;52.324;5.122;2024-03-22T12:31:53;23.23;;;9.70;;
67274;SDS011;55463;52.324;5.122;2024-03-22T12:34:18;21.67;;;10.07;;
67274;SDS011;55463;52.324;5.122;2024-03-22T12:36:44;18.83;;;8.77;;
67274;SDS011;55463;52.324;5.122;2024-03-22T12:39:09;20.02;;;8.98;;
67274;SDS011;55463;52.324;5.122;2024-03-22T12:41:34;21.92;;;9.70;;
67274;SDS011;55463;52.324;5.122;2024-03-22T12:44:00;18.73;;;9.45;;
67274;SDS011;55463;52.324;5.122;2024-03-22T12:46:26;22.60;;;9.45;;
67274;SDS011;55463;52.324;5.122;2024-03-22T12:48:52;16.55;;;8.75;;
67274;SDS011;55463;52.324;5.122;2024-03-22T12:51:18;16.60;;;9.80;;
67274;SDS011;55463;52.324;5.122;2024-03-22T12:53:44;23.83;;;8.77;;
67274;SDS011;55463;52.324;5.122;2024-03-22T12:56:09;21.80;;;9.18;;
67274;SDS011;55463;52.324;5.122;2024-03-22T12:58:36;23.10;;;8.48;;
67274;SDS011;55463;52.324;5.122;2024-03-22T13:01:01;22.60;;;8.60;;
67274;SDS011;55463;52.324;5.122;2024-03-22T13:03:27;19.35;;;8.32;;
67274;SDS011;55463;52.324;5.122;2024-03-22T13:05:53;17.08;;;8.57;;
67274;SDS011;55463;52.324;5.122;2024-03-22T13:08:19;18.75;;;8.38;;
67274;SDS011;55463;52.324;5.122;2024-03-22T13:10:47;16.42;;;7.30;;
67274;SDS011;55463;52.324;5.122;2024-03-22T13:13:13;19.08;;;8.02;;
67274;SDS011;55463;52.324;5.122;2024-03-22T13:15:41;14.57;;;7.60;;
67274;SDS011;55463;52.324;5.122;2024-03-22T13:18:07;21.17;;;8.02;;
67274;SDS011;55463;52.324;5.122;2024-03-22T13:20:33;15.38;;;7.15;;
67274;SDS011;55463;52.324;5.122;2024-03-22T13:22:59;19.80;;;7.70;;
67274;SDS011;55463;52.324;5.122;2024-03-22T13:25:26;16.08;;;6.68;;
67274;SDS011;55463;52.324;5.122;2024-03-22T13:27:51;15.88;;;6.85;;
67274;SDS011;55463;52.324;5.122;2024-03-22T13:30:17;17.52;;;7.07;;
67274;SDS011;55463;52.324;5.122;2024-03-22T13:32:42;17.67;;;6.53;;
67274;SDS011;55463;52.324;5.122;2024-03-22T13:35:07;18.73;;;6.88;;
67274;SDS011;55463;52.324;5.122;2024-03-22T13:37:33;15.85;;;6.90;;
67274;SDS011;55463;52.324;5.122;2024-03-22T13:39:59;19.45;;;6.63;;
67274;SDS011;55463;52.324;5.122;2024-03-22T13:42:25;16.48;;;6.82;;
67274;SDS011;55463;52.324;5.122;2024-03-22T13:44:51;14.10;;;5.68;;
67274;SDS011;55463;52.324;5.122;2024-03-22T13:47:17;16.25;;;6.50;;
67274;SDS011;55463;52.324;5.122;2024-03-22T13:49:43;13.88;;;5.85;;
67274;SDS011;55463;52.324;5.122;2024-03-22T13:52:08;20.17;;;6.65;;
67274;SDS011;55463;52.324;5.122;2024-03-22T13:54:34;15.60;;;6.00;;
67274;SDS011;55463;52.324;5.122;2024-03-22T13:57:00;19.55;;;7.20;;
67274;SDS011;55463;52.324;5.122;2024-03-22T13:59:25;21.80;;;7.03;;
67274;SDS011;55463;52.324;5.122;2024-03-22T14:01:51;27.20;;;7.47;;
67274;SDS011;55463;52.324;5.122;2024-03-22T14:04:17;21.95;;;7.50;;
67274;SDS011;55463;52.324;5.122;2024-03-22T14:06:45;23.02;;;8.30;;
67274;SDS011;55463;52.324;5.122;2024-03-22T14:09:11;19.70;;;8.10;;
67274;SDS011;55463;52.324;5.122;2024-03-22T14:11:38;24.60;;;9.43;;
67274;SDS011;55463;52.324;5.122;2024-03-22T14:14:08;17.52;;;8.50;;
67274;SDS011;55463;52.324;5.122;2024-03-22T14:16:36;20.77;;;8.32;;
67274;SDS011;55463;52.324;5.122;2024-03-22T14:19:02;22.63;;;8.43;;
67274;SDS011;55463;52.324;5.122;2024-03-22T14:21:28;22.25;;;8.18;;
67274;SDS011;55463;52.324;5.122;2024-03-22T14:23:54;28.83;;;7.97;;
67274;SDS011;55463;52.324;5.122;2024-03-22T14:26:20;21.80;;;7.60;;
67274;SDS011;55463;52.324;5.122;2024-03-22T14:28:46;21.92;;;6.80;;